createdAt,value
2023-02-19T00:02:18.872Z,99013.40
2023-02-19T00:05:16.542Z,99016.80
2023-02-19T00:08:14.025Z,99016.60
2023-02-19T00:11:12.067Z,99016.00
2023-02-19T00:14:09.610Z,99015.00
2023-02-19T00:17:07.381Z,99018.80
2023-02-19T00:20:04.838Z,99020.20
2023-02-19T00:23:02.513Z,99023.60
2023-02-19T00:26:12.344Z,99023.40
2023-02-19T00:29:15.220Z,99033.40
2023-02-19T00:32:12.929Z,99032.40
2023-02-19T00:35:10.387Z,99045.40
2023-02-19T00:38:08.125Z,99051.00
2023-02-19T00:41:19.209Z,99053.60
2023-02-19T00:44:17.167Z,99063.20
2023-02-19T00:47:14.739Z,99058.80
2023-02-19T00:50:12.202Z,99054.60
2023-02-19T00:53:09.838Z,99058.00
2023-02-19T00:56:07.790Z,99049.80
2023-02-19T00:59:05.495Z,99052.20
2023-02-19T01:02:03.261Z,99054.40
2023-02-19T01:05:00.766Z,99058.00
2023-02-19T01:07:58.435Z,99062.80
2023-02-19T01:10:55.910Z,99053.80
2023-02-19T01:13:53.479Z,99052.60
2023-02-19T01:16:50.944Z,99060.60
2023-02-19T01:19:48.589Z,99047.00
2023-02-19T01:22:46.074Z,99045.40
2023-02-19T01:25:43.707Z,99035.60
2023-02-19T01:28:41.450Z,99041.80
2023-02-19T01:31:38.953Z,99041.20
2023-02-19T01:34:36.737Z,99034.00
2023-02-19T01:37:34.204Z,99025.60
2023-02-19T01:40:31.980Z,99026.60
2023-02-19T01:43:29.444Z,99028.60
2023-02-19T01:46:28.054Z,99029.80
2023-02-19T01:49:25.891Z,99021.80
2023-02-19T01:52:23.358Z,99024.00
2023-02-19T01:55:21.136Z,99020.40
2023-02-19T01:58:18.640Z,99026.80
2023-02-19T02:01:16.451Z,99014.80
2023-02-19T02:04:14.077Z,99016.40
2023-02-19T02:07:25.386Z,99011.60
2023-02-19T02:10:23.249Z,99003.20
2023-02-19T02:13:20.716Z,99000.80
2023-02-19T02:16:18.365Z,99000.00
2023-02-19T02:19:15.887Z,98991.00
2023-02-19T02:22:13.880Z,98988.80
2023-02-19T02:25:11.527Z,98989.40
2023-02-19T02:28:08.972Z,98988.80
2023-02-19T02:31:06.731Z,98983.80
2023-02-19T02:34:04.215Z,98989.80
2023-02-19T02:37:01.823Z,98980.20
2023-02-19T02:39:59.269Z,98983.40
2023-02-19T02:42:56.951Z,98978.20
2023-02-19T02:45:54.775Z,98978.20
2023-02-19T02:48:55.479Z,98975.20
2023-02-19T02:51:53.114Z,98973.00
2023-02-19T02:55:05.745Z,98972.20
2023-02-19T02:58:03.511Z,98967.80
2023-02-19T03:01:18.560Z,98967.80
2023-02-19T03:04:16.256Z,98962.60
2023-02-19T03:07:14.018Z,98962.80
2023-02-19T03:10:11.471Z,98961.60
2023-02-19T03:13:26.733Z,98963.00
2023-02-19T03:16:43.001Z,98960.00
2023-02-19T03:19:40.840Z,98947.60
2023-02-19T03:22:38.583Z,98954.80
2023-02-19T03:25:53.848Z,98951.00
2023-02-19T03:29:09.507Z,98960.60
2023-02-19T03:32:06.992Z,98959.00
2023-02-19T03:35:04.694Z,98950.80
2023-02-19T03:38:02.430Z,98952.40
2023-02-19T03:40:59.881Z,98955.40
2023-02-19T03:43:57.644Z,98958.00
2023-02-19T03:46:55.105Z,98959.20
2023-02-19T03:49:53.194Z,98958.40
2023-02-19T03:52:50.635Z,98955.20
2023-02-19T03:55:48.324Z,98952.20
2023-02-19T03:58:45.937Z,98946.20
2023-02-19T04:01:43.672Z,98947.40
2023-02-19T04:04:41.363Z,98947.00
2023-02-19T04:07:38.841Z,98943.80
2023-02-19T04:10:36.656Z,98942.80
2023-02-19T04:13:34.120Z,98950.40
2023-02-19T04:16:32.039Z,98947.20
2023-02-19T04:19:29.769Z,98952.80
2023-02-19T04:22:27.246Z,98953.60
2023-02-19T04:25:24.985Z,98948.60
2023-02-19T04:28:22.434Z,98947.20
2023-02-19T04:31:20.394Z,98942.80
2023-02-19T04:34:17.995Z,98940.80
2023-02-19T04:37:15.748Z,98940.80
2023-02-19T04:40:13.597Z,98938.20
2023-02-19T04:43:11.028Z,98940.20
2023-02-19T04:46:08.784Z,98935.60
2023-02-19T04:49:06.244Z,98932.00
2023-02-19T04:52:03.943Z,98930.00
2023-02-19T04:55:01.402Z,98923.00
2023-02-19T04:57:59.178Z,98926.80
2023-02-19T05:00:56.968Z,98925.00
2023-02-19T05:03:54.432Z,98916.60
2023-02-19T05:06:52.194Z,98906.20
2023-02-19T05:09:49.639Z,98899.60
2023-02-19T05:12:47.311Z,98894.40
2023-02-19T05:15:44.794Z,98884.40
2023-02-19T05:18:42.836Z,98890.60
2023-02-19T05:21:40.707Z,98883.60
2023-02-19T05:24:38.478Z,98879.00
2023-02-19T05:27:35.920Z,98869.80
2023-02-19T05:30:33.661Z,98874.00
2023-02-19T05:33:31.310Z,98860.20
2023-02-19T05:36:29.088Z,98858.20
2023-02-19T05:39:26.770Z,98845.20
2023-02-19T05:42:24.225Z,98845.60
2023-02-19T05:45:21.867Z,98843.00
2023-02-19T05:48:19.308Z,98836.00
2023-02-19T05:51:16.925Z,98830.00
2023-02-19T05:54:14.586Z,98819.40
2023-02-19T05:57:12.049Z,98832.20
2023-02-19T06:00:10.839Z,98824.00
2023-02-19T06:03:08.320Z,98819.00
2023-02-19T06:06:06.082Z,98817.40
2023-02-19T06:09:03.517Z,98809.20
2023-02-19T06:12:01.135Z,98819.20
2023-02-19T06:14:58.593Z,98818.00
2023-02-19T06:17:56.327Z,98809.60
2023-02-19T06:20:54.222Z,98788.20
2023-02-19T06:23:51.665Z,98822.80
2023-02-19T06:26:49.290Z,98826.40
2023-02-19T06:29:46.740Z,98829.60
2023-02-19T06:32:44.375Z,98819.60
2023-02-19T06:35:41.839Z,98825.80
2023-02-19T06:38:39.507Z,98836.40
2023-02-19T06:41:37.350Z,98827.60
2023-02-19T06:44:34.797Z,98838.40
2023-02-19T06:47:32.586Z,98837.40
2023-02-19T06:50:30.016Z,98834.80
2023-02-19T06:53:27.826Z,98831.80
2023-02-19T06:56:25.415Z,98831.20
2023-02-19T06:59:23.226Z,98825.80
2023-02-19T07:02:20.769Z,98825.40
2023-02-19T07:05:18.414Z,98830.00
2023-02-19T07:08:17.657Z,98832.60
2023-02-19T07:11:15.139Z,98830.40
2023-02-19T07:14:12.759Z,98823.60
2023-02-19T07:17:10.208Z,98819.20
2023-02-19T07:20:07.856Z,98832.20
2023-02-19T07:23:05.294Z,98838.60
2023-02-19T07:26:02.980Z,98845.00
2023-02-19T07:29:00.724Z,98841.60
2023-02-19T07:31:58.230Z,98834.80
2023-02-19T07:34:56.117Z,98842.00
2023-02-19T07:37:53.543Z,98824.60
2023-02-19T07:40:51.365Z,98817.40
2023-02-19T07:43:48.817Z,98824.40
2023-02-19T07:46:46.426Z,98812.40
2023-02-19T07:49:44.242Z,98808.00
2023-02-19T07:52:41.710Z,98813.80
2023-02-19T07:55:39.338Z,98824.40
2023-02-19T07:58:36.775Z,98822.40
2023-02-19T08:01:52.322Z,98827.60
2023-02-19T08:04:49.810Z,98825.00
2023-02-19T08:07:47.538Z,98840.00
2023-02-19T08:11:02.898Z,98837.80
2023-02-19T08:14:00.532Z,98839.00
2023-02-19T08:16:58.404Z,98859.80
2023-02-19T08:19:55.871Z,98871.20
2023-02-19T08:22:53.529Z,98882.60
2023-02-19T08:25:50.973Z,98882.20
2023-02-19T08:28:48.860Z,98873.40
2023-02-19T08:31:46.432Z,98879.00
2023-02-19T08:34:44.231Z,98873.00
2023-02-19T08:37:41.662Z,98876.80
2023-02-19T08:40:39.365Z,98872.20
2023-02-19T08:43:36.827Z,98868.80
2023-02-19T08:46:34.662Z,98860.60
2023-02-19T08:49:32.379Z,98865.20
2023-02-19T08:52:29.811Z,98860.20
2023-02-19T08:55:27.578Z,98869.80
2023-02-19T08:58:26.395Z,98865.00
2023-02-19T09:01:24.364Z,98864.60
2023-02-19T09:04:22.125Z,98878.00
2023-02-19T09:07:19.601Z,98900.00
2023-02-19T09:10:17.248Z,98883.20
2023-02-19T09:13:14.688Z,98896.20
2023-02-19T09:16:12.314Z,98900.60
2023-02-19T09:19:09.859Z,98891.00
2023-02-19T09:22:07.602Z,98892.00
2023-02-19T09:25:05.121Z,98900.00
2023-02-19T09:28:03.054Z,98910.60
2023-02-19T09:31:00.598Z,98902.40
2023-02-19T09:33:58.367Z,98895.00
2023-02-19T09:36:55.986Z,98891.20
2023-02-19T09:39:53.667Z,98892.20
2023-02-19T09:42:51.443Z,98879.20
2023-02-19T09:45:48.902Z,98875.00
2023-02-19T09:48:47.427Z,98878.20
2023-02-19T09:51:45.674Z,98875.00
2023-02-19T09:54:43.540Z,98870.00
2023-02-19T09:57:41.408Z,98853.80
2023-02-19T10:00:39.370Z,98853.00
2023-02-19T10:03:39.619Z,98854.40
2023-02-19T10:06:40.344Z,98846.60
2023-02-19T10:09:38.081Z,98858.80
2023-02-19T10:12:36.486Z,98841.60
2023-02-19T10:15:33.949Z,98835.60
2023-02-19T10:18:33.236Z,98840.80
2023-02-19T10:21:30.723Z,98842.40
2023-02-19T10:24:28.532Z,98836.40
2023-02-19T10:27:27.334Z,98848.20
2023-02-19T10:30:26.481Z,98858.00
2023-02-19T10:33:24.653Z,98854.00
2023-02-19T10:36:22.984Z,98859.60
2023-02-19T10:39:20.643Z,98860.80
2023-02-19T10:42:18.876Z,98874.40
2023-02-19T10:45:17.351Z,98878.00
2023-02-19T10:48:14.895Z,98872.80
2023-02-19T10:51:21.999Z,98882.60
2023-02-19T10:54:21.705Z,98881.80
2023-02-19T10:57:20.191Z,98880.80
2023-02-19T11:00:22.212Z,98892.20
2023-02-19T11:03:19.892Z,98898.20
2023-02-19T11:06:18.265Z,98901.40
2023-02-19T11:09:15.802Z,98915.60
2023-02-19T11:12:13.467Z,98921.20
2023-02-19T11:15:11.608Z,98900.80
2023-02-19T11:18:09.114Z,98900.40
2023-02-19T11:21:07.279Z,98894.80
2023-02-19T11:24:04.832Z,98904.00
2023-02-19T11:27:03.048Z,98895.00
2023-02-19T11:30:01.046Z,98895.80
2023-02-19T11:32:59.140Z,98899.40
2023-02-19T11:35:57.516Z,98886.80
2023-02-19T11:38:54.976Z,98892.40
2023-02-19T11:41:57.717Z,98910.20
2023-02-19T11:44:55.299Z,98917.20
2023-02-19T11:47:55.647Z,98943.60
2023-02-19T11:50:53.518Z,98933.40
2023-02-19T11:53:51.921Z,98921.40
2023-02-19T11:56:50.118Z,98921.60
2023-02-19T11:59:47.889Z,98932.00
2023-02-19T12:02:46.348Z,98932.80
2023-02-19T12:05:44.022Z,98934.60
2023-02-19T12:08:42.393Z,98941.40
2023-02-19T12:11:40.432Z,98933.80
2023-02-19T12:14:38.072Z,98937.00
2023-02-19T12:17:38.785Z,98931.60
2023-02-19T12:20:37.058Z,98933.60
2023-02-19T12:23:34.791Z,98945.20
2023-02-19T12:26:32.280Z,98942.60
2023-02-19T12:29:30.630Z,98938.60
2023-02-19T12:32:28.867Z,98942.60
2023-02-19T12:35:27.084Z,98935.20
2023-02-19T12:38:25.469Z,98939.40
2023-02-19T12:41:23.548Z,98940.00
2023-02-19T12:44:21.444Z,98939.40
2023-02-19T12:47:19.036Z,98949.60
2023-02-19T12:50:17.269Z,98942.60
2023-02-19T12:53:15.267Z,98939.40
2023-02-19T12:56:13.201Z,98933.40
2023-02-19T12:59:12.609Z,98931.80
2023-02-19T13:02:10.691Z,98931.80
2023-02-19T13:05:10.005Z,98931.40
2023-02-19T13:08:07.502Z,98933.40
2023-02-19T13:11:05.895Z,98933.00
2023-02-19T13:14:03.872Z,98933.00
2023-02-19T13:17:01.950Z,98925.60
2023-02-19T13:20:00.442Z,98928.80
2023-02-19T13:23:15.866Z,98941.00
2023-02-19T13:26:14.115Z,98941.40
2023-02-19T13:29:11.988Z,98939.40
2023-02-19T13:32:10.488Z,98947.00
2023-02-19T13:35:11.434Z,98957.20
2023-02-19T13:38:09.264Z,98936.20
2023-02-19T13:41:07.178Z,98932.20
2023-02-19T13:44:05.324Z,98926.20
2023-02-19T13:47:06.733Z,98921.00
2023-02-19T13:50:04.244Z,98930.00
2023-02-19T13:53:02.503Z,98945.20
2023-02-19T13:56:00.367Z,98940.40
2023-02-19T13:58:58.876Z,98943.00
2023-02-19T14:01:56.912Z,98936.80
2023-02-19T14:04:55.773Z,98942.20
2023-02-19T14:07:57.952Z,98944.40
2023-02-19T14:10:57.961Z,98948.60
2023-02-19T14:13:56.346Z,98956.80
2023-02-19T14:16:54.779Z,98957.60
2023-02-19T14:19:57.576Z,98969.40
2023-02-19T14:23:01.777Z,98969.60
2023-02-19T14:26:00.232Z,98981.40
2023-02-19T14:28:59.763Z,98982.20
2023-02-19T14:31:59.182Z,98986.60
2023-02-19T14:34:59.023Z,98990.00
2023-02-19T14:37:59.153Z,99009.60
2023-02-19T14:40:57.425Z,99025.80
2023-02-19T14:43:55.516Z,99025.00
2023-02-19T14:46:53.756Z,99028.60
2023-02-19T14:49:52.137Z,99027.20
2023-02-19T14:52:49.935Z,99044.00
2023-02-19T14:55:48.995Z,99047.40
2023-02-19T14:58:48.409Z,99042.40
2023-02-19T15:01:46.476Z,99039.80
2023-02-19T15:04:46.004Z,99043.00
2023-02-19T15:07:43.944Z,99046.00
2023-02-19T15:10:42.032Z,99061.40
2023-02-19T15:13:46.253Z,99064.40
2023-02-19T15:16:45.048Z,99066.80
2023-02-19T15:19:46.397Z,99068.40
2023-02-19T15:22:44.821Z,99072.80
2023-02-19T15:25:46.336Z,99057.80
2023-02-19T15:28:46.230Z,99060.60
2023-02-19T15:31:48.201Z,99076.40
2023-02-19T15:34:46.913Z,99072.40
2023-02-19T15:37:45.293Z,99083.60
2023-02-19T15:40:43.792Z,99092.00
2023-02-19T15:43:46.099Z,99094.20
2023-02-19T15:46:44.860Z,99105.80
2023-02-19T15:49:44.043Z,99107.00
2023-02-19T15:52:42.547Z,99114.80
2023-02-19T15:55:40.491Z,99131.20
2023-02-19T15:58:41.390Z,99142.00
2023-02-19T16:01:39.915Z,99156.40
2023-02-19T16:04:38.203Z,99160.60
2023-02-19T16:07:39.964Z,99175.20
2023-02-19T16:10:38.027Z,99171.40
2023-02-19T16:13:40.022Z,99180.40
2023-02-19T16:16:38.514Z,99178.60
2023-02-19T16:19:36.815Z,99187.20
2023-02-19T16:22:35.173Z,99188.40
2023-02-19T16:25:33.925Z,99215.20
2023-02-19T16:28:34.896Z,99207.60
2023-02-19T16:31:34.750Z,99215.20
2023-02-19T16:34:35.211Z,99197.60
2023-02-19T16:37:33.725Z,99186.00
2023-02-19T16:40:32.812Z,99196.20
2023-02-19T16:43:32.429Z,99208.80
2023-02-19T16:46:31.444Z,99223.40
2023-02-19T16:49:29.813Z,99222.20
2023-02-19T16:52:28.893Z,99227.60
2023-02-19T16:55:27.591Z,99238.40
2023-02-19T16:58:26.900Z,99249.40
2023-02-19T17:01:26.040Z,99257.00
2023-02-19T17:04:23.833Z,99260.80
2023-02-19T17:07:23.033Z,99273.20
2023-02-19T17:10:21.397Z,99284.00
2023-02-19T17:13:20.560Z,99290.20
2023-02-19T17:16:20.649Z,99280.20
2023-02-19T17:19:20.136Z,99275.60
2023-02-19T17:22:19.282Z,99289.00
2023-02-19T17:25:17.956Z,99296.80
2023-02-19T17:28:16.783Z,99312.40
2023-02-19T17:31:16.202Z,99319.20
2023-02-19T17:34:15.860Z,99325.80
2023-02-19T17:37:14.476Z,99347.60
2023-02-19T17:40:16.802Z,99349.00
2023-02-19T17:43:16.341Z,99358.00
2023-02-19T17:46:15.979Z,99364.60
2023-02-19T17:49:15.276Z,99371.40
2023-02-19T17:52:17.806Z,99375.00
2023-02-19T17:55:19.710Z,99379.00
2023-02-19T17:58:20.146Z,99382.20
2023-02-19T18:01:20.481Z,99393.60
2023-02-19T18:04:19.382Z,99388.80
2023-02-19T18:07:18.947Z,99394.20
2023-02-19T18:10:20.632Z,99389.60
2023-02-19T18:13:24.192Z,99396.00
2023-02-19T18:16:25.316Z,99405.40
2023-02-19T18:19:24.143Z,99418.80
2023-02-19T18:22:23.141Z,99423.60
2023-02-19T18:25:22.306Z,99426.60
2023-02-19T18:28:21.036Z,99428.00
2023-02-19T18:31:20.088Z,99430.80
2023-02-19T18:34:18.209Z,99429.20
2023-02-19T18:37:16.482Z,99433.40
2023-02-19T18:40:15.409Z,99429.40
2023-02-19T18:43:13.731Z,99438.20
2023-02-19T18:46:15.442Z,99440.60
2023-02-19T18:49:13.899Z,99450.80
2023-02-19T18:52:15.113Z,99446.40
2023-02-19T18:55:14.707Z,99447.20
2023-02-19T18:58:16.789Z,99449.80
2023-02-19T19:01:17.296Z,99456.40
2023-02-19T19:04:16.367Z,99446.60
2023-02-19T19:07:14.634Z,99455.40
2023-02-19T19:10:17.132Z,99456.80
2023-02-19T19:13:17.561Z,99460.60
2023-02-19T19:16:16.444Z,99457.20
2023-02-19T19:19:15.257Z,99465.00
2023-02-19T19:22:14.126Z,99475.20
2023-02-19T19:25:14.653Z,99470.00
2023-02-19T19:28:13.300Z,99458.40
2023-02-19T19:31:12.918Z,99464.40
2023-02-19T19:34:13.643Z,99468.40
2023-02-19T19:37:12.588Z,99468.20
2023-02-19T19:40:11.681Z,99477.60
2023-02-19T19:43:10.455Z,99481.20
2023-02-19T19:46:09.807Z,99485.60
2023-02-19T19:49:07.934Z,99487.40
2023-02-19T19:52:06.847Z,99494.80
2023-02-19T19:55:07.399Z,99500.40
2023-02-19T19:58:06.988Z,99507.20
2023-02-19T20:01:07.146Z,99511.60
2023-02-19T20:04:05.796Z,99517.40
2023-02-19T20:07:04.697Z,99513.40
2023-02-19T20:10:05.195Z,99523.00
2023-02-19T20:13:02.885Z,99522.00
2023-02-19T20:16:02.151Z,99528.60
2023-02-19T20:19:00.552Z,99529.40
2023-02-19T20:21:59.190Z,99538.00
2023-02-19T20:24:58.041Z,99539.20
2023-02-19T20:27:57.394Z,99540.80
2023-02-19T20:30:58.442Z,99545.00
2023-02-19T20:33:57.389Z,99541.40
2023-02-19T20:36:56.446Z,99539.60
2023-02-19T20:39:56.097Z,99543.40
2023-02-19T20:42:54.291Z,99549.40
2023-02-19T20:45:53.816Z,99558.00
2023-02-19T20:48:52.710Z,99560.80
2023-02-19T20:51:51.638Z,99561.20
2023-02-19T20:54:50.361Z,99563.80
2023-02-19T20:57:50.937Z,99568.20
2023-02-19T21:00:48.896Z,99574.00
2023-02-19T21:03:49.712Z,99578.40
2023-02-19T21:06:48.392Z,99581.00
2023-02-19T21:09:48.821Z,99585.80
2023-02-19T21:12:47.554Z,99589.40
2023-02-19T21:15:47.603Z,99596.60
2023-02-19T21:18:48.193Z,99596.00
2023-02-19T21:21:46.081Z,99592.80
2023-02-19T21:24:44.341Z,99596.60
2023-02-19T21:27:42.906Z,99596.40
2023-02-19T21:30:40.969Z,99597.00
2023-02-19T21:33:39.367Z,99611.80
2023-02-19T21:36:37.304Z,99613.80
2023-02-19T21:39:35.620Z,99614.00
2023-02-19T21:42:33.897Z,99612.00
2023-02-19T21:45:32.287Z,99617.40
2023-02-19T21:48:29.845Z,99607.80
2023-02-19T21:51:28.702Z,99618.40
2023-02-19T21:54:27.025Z,99617.40
2023-02-19T21:57:24.856Z,99616.80
2023-02-19T22:00:24.063Z,99622.60
2023-02-19T22:03:21.709Z,99626.20
2023-02-19T22:06:19.818Z,99632.40
2023-02-19T22:09:17.300Z,99635.20
2023-02-19T22:12:15.361Z,99630.40
2023-02-19T22:15:12.905Z,99634.60
2023-02-19T22:18:10.930Z,99634.00
2023-02-19T22:21:08.383Z,99637.80
2023-02-19T22:24:06.216Z,99638.60
2023-02-19T22:27:03.706Z,99641.80
2023-02-19T22:30:01.540Z,99651.00
2023-02-19T22:32:59.309Z,99650.80
2023-02-19T22:35:56.757Z,99656.40
2023-02-19T22:38:54.406Z,99652.20
2023-02-19T22:41:51.872Z,99657.40
2023-02-19T22:44:49.537Z,99646.00
2023-02-19T22:47:47.080Z,99660.40
2023-02-19T22:50:44.889Z,99661.80
2023-02-19T22:53:42.351Z,99663.00
2023-02-19T22:56:39.987Z,99659.60
2023-02-19T22:59:37.694Z,99655.40
2023-02-19T23:02:35.173Z,99661.00
2023-02-19T23:05:33.317Z,99657.80
2023-02-19T23:08:30.758Z,99666.40
2023-02-19T23:11:28.569Z,99671.20
2023-02-19T23:14:26.041Z,99668.60
2023-02-19T23:17:23.870Z,99670.60
2023-02-19T23:20:21.307Z,99678.00
2023-02-19T23:23:18.963Z,99677.00
2023-02-19T23:26:18.787Z,99675.80
2023-02-19T23:29:16.798Z,99670.00
2023-02-19T23:32:14.659Z,99671.40
2023-02-19T23:35:12.134Z,99662.20
2023-02-19T23:38:10.184Z,99659.20
2023-02-19T23:41:07.616Z,99664.60
2023-02-19T23:44:05.414Z,99669.00
2023-02-19T23:47:02.892Z,99671.80
2023-02-19T23:50:00.534Z,99668.80
2023-02-19T23:52:59.294Z,99668.80
2023-02-19T23:55:57.083Z,99658.40
2023-02-19T23:58:54.741Z,99657.80
